createdAt,value
2018-07-08T00:01:45.129Z,17.20
2018-07-08T00:04:12.386Z,17.20
2018-07-08T00:06:39.642Z,17.10
2018-07-08T00:09:06.920Z,17.00
2018-07-08T00:11:34.192Z,16.90
2018-07-08T00:14:01.413Z,16.80
2018-07-08T00:16:28.672Z,16.80
2018-07-08T00:18:55.944Z,16.70
2018-07-08T00:21:23.248Z,16.60
2018-07-08T00:23:50.501Z,16.70
2018-07-08T00:26:17.780Z,16.60
2018-07-08T00:28:45.061Z,16.60
2018-07-08T00:31:12.316Z,16.50
2018-07-08T00:33:39.573Z,16.50
2018-07-08T00:36:06.843Z,16.40
2018-07-08T00:38:34.084Z,16.40
2018-07-08T00:41:01.347Z,16.30
2018-07-08T00:43:28.573Z,16.30
2018-07-08T00:45:55.833Z,16.30
2018-07-08T00:48:23.068Z,16.20
2018-07-08T00:50:50.341Z,16.20
2018-07-08T00:53:17.577Z,16.10
2018-07-08T00:55:44.849Z,16.00
2018-07-08T00:58:12.108Z,16.00
2018-07-08T01:00:39.356Z,15.90
2018-07-08T01:03:08.597Z,15.90
2018-07-08T01:05:35.887Z,15.90
2018-07-08T01:08:03.633Z,15.90
2018-07-08T01:10:30.901Z,15.90
2018-07-08T01:12:58.940Z,15.90
2018-07-08T01:15:26.285Z,15.90
2018-07-08T01:17:53.589Z,15.90
2018-07-08T01:20:21.090Z,15.90
2018-07-08T01:22:48.348Z,15.90
2018-07-08T01:25:16.645Z,15.90
2018-07-08T01:27:43.941Z,15.90
2018-07-08T01:30:13.333Z,15.90
2018-07-08T01:35:07.825Z,15.80
2018-07-08T01:37:35.069Z,15.70
2018-07-08T01:40:02.394Z,15.60
2018-07-08T01:42:30.452Z,15.60
2018-07-08T01:44:57.917Z,15.50
2018-07-08T01:47:25.706Z,15.40
2018-07-08T01:49:53.185Z,15.30
2018-07-08T01:52:21.090Z,15.30
2018-07-08T01:54:48.349Z,15.30
2018-07-08T01:57:15.617Z,15.30
2018-07-08T01:59:42.888Z,15.20
2018-07-08T02:02:10.145Z,15.20
2018-07-08T02:07:04.948Z,15.20
2018-07-08T02:09:32.132Z,15.20
2018-07-08T02:14:27.037Z,15.30
2018-07-08T02:16:54.260Z,15.40
2018-07-08T02:19:21.525Z,15.50
2018-07-08T02:21:48.796Z,15.60
2018-07-08T02:24:16.029Z,15.70
2018-07-08T02:26:43.592Z,15.90
2018-07-08T02:29:11.041Z,16.00
2018-07-08T02:31:38.314Z,16.00
2018-07-08T02:34:05.569Z,16.10
2018-07-08T02:36:32.836Z,16.20
2018-07-08T02:39:00.106Z,16.20
2018-07-08T02:41:27.390Z,16.20
2018-07-08T02:43:54.628Z,16.30
2018-07-08T02:46:21.885Z,16.30
2018-07-08T02:48:49.889Z,16.30
2018-07-08T02:51:17.149Z,16.30
2018-07-08T02:53:44.401Z,16.30
2018-07-08T02:56:11.621Z,16.30
2018-07-08T02:58:38.881Z,16.30
2018-07-08T03:01:06.121Z,16.30
2018-07-08T03:03:33.328Z,16.30
2018-07-08T03:06:00.562Z,16.30
2018-07-08T03:08:27.793Z,16.30
2018-07-08T03:10:55.017Z,16.30
2018-07-08T03:13:22.237Z,16.20
2018-07-08T03:15:49.450Z,16.20
2018-07-08T03:18:16.663Z,16.10
2018-07-08T03:20:43.909Z,16.10
2018-07-08T03:23:11.124Z,16.00
2018-07-08T03:25:38.340Z,15.90
2018-07-08T03:28:05.541Z,15.90
2018-07-08T03:30:32.749Z,15.80
2018-07-08T03:32:59.971Z,15.80
2018-07-08T03:35:27.178Z,15.70
2018-07-08T03:37:54.384Z,15.70
2018-07-08T03:40:21.608Z,15.80
2018-07-08T03:42:48.821Z,15.70
2018-07-08T03:47:43.217Z,15.70
2018-07-08T03:50:10.426Z,15.60
2018-07-08T03:52:37.633Z,15.60
2018-07-08T03:55:05.178Z,15.60
2018-07-08T03:57:32.408Z,15.50
2018-07-08T03:59:59.621Z,15.50
2018-07-08T04:02:26.836Z,15.40
2018-07-08T04:04:54.041Z,15.40
2018-07-08T04:07:21.317Z,15.40
2018-07-08T04:09:48.545Z,15.40
2018-07-08T04:12:15.745Z,15.40
2018-07-08T04:14:42.977Z,15.30
2018-07-08T04:17:10.185Z,15.20
2018-07-08T04:19:37.400Z,15.20
2018-07-08T04:22:04.669Z,15.10
2018-07-08T04:24:31.876Z,15.10
2018-07-08T04:26:59.093Z,15.00
2018-07-08T04:29:26.302Z,15.10
2018-07-08T04:31:53.515Z,15.00
2018-07-08T04:34:20.721Z,15.10
2018-07-08T04:36:47.950Z,15.10
2018-07-08T04:39:15.174Z,15.10
2018-07-08T04:41:42.402Z,15.10
2018-07-08T04:44:09.668Z,15.10
2018-07-08T04:46:36.901Z,15.20
2018-07-08T04:49:04.154Z,15.30
2018-07-08T04:51:31.382Z,15.40
2018-07-08T04:53:58.589Z,15.50
2018-07-08T04:56:25.817Z,15.70
2018-07-08T04:58:52.998Z,15.80
2018-07-08T05:01:20.309Z,16.00
2018-07-08T05:03:47.525Z,16.10
2018-07-08T05:06:14.708Z,16.30
2018-07-08T05:08:41.887Z,16.50
2018-07-08T05:11:09.073Z,16.60
2018-07-08T05:13:36.292Z,16.80
2018-07-08T05:16:03.686Z,16.90
2018-07-08T05:18:30.884Z,17.10
2018-07-08T05:20:58.100Z,17.20
2018-07-08T05:23:25.288Z,17.30
2018-07-08T05:25:52.468Z,17.40
2018-07-08T05:28:19.658Z,17.40
2018-07-08T05:33:14.176Z,17.50
2018-07-08T05:35:41.383Z,17.60
2018-07-08T05:38:08.545Z,17.60
2018-07-08T05:40:35.840Z,17.70
2018-07-08T05:43:03.036Z,17.70
2018-07-08T05:45:30.337Z,17.80
2018-07-08T05:47:57.535Z,17.80
2018-07-08T05:50:24.877Z,17.90
2018-07-08T05:52:52.009Z,17.90
2018-07-08T05:55:19.236Z,17.90
2018-07-08T05:57:46.440Z,18.00
2018-07-08T06:00:13.685Z,18.00
2018-07-08T06:02:40.917Z,18.00
2018-07-08T06:05:08.146Z,18.20
2018-07-08T06:07:35.441Z,18.10
2018-07-08T06:10:02.702Z,18.30
2018-07-08T06:12:30.053Z,18.20
2018-07-08T06:14:57.305Z,18.30
2018-07-08T06:17:24.521Z,18.30
2018-07-08T06:19:51.736Z,18.40
2018-07-08T06:22:19.140Z,18.50
2018-07-08T06:24:46.361Z,18.60
2018-07-08T06:27:13.578Z,18.60
2018-07-08T06:29:40.784Z,18.70
2018-07-08T06:32:07.985Z,18.70
2018-07-08T06:34:35.349Z,18.80
2018-07-08T06:37:02.611Z,18.80
2018-07-08T06:39:30.090Z,18.90
2018-07-08T06:41:57.427Z,19.00
2018-07-08T06:44:24.828Z,19.00
2018-07-08T06:46:52.054Z,19.10
2018-07-08T06:49:19.309Z,19.20
2018-07-08T06:51:46.526Z,19.30
2018-07-08T06:54:13.741Z,19.40
2018-07-08T06:56:40.969Z,19.50
2018-07-08T07:01:36.681Z,21.00
2018-07-08T07:04:03.952Z,22.90
2018-07-08T07:06:31.169Z,24.40
2018-07-08T07:08:58.429Z,25.70
2018-07-08T07:11:25.648Z,27.10
2018-07-08T07:13:52.852Z,28.00
2018-07-08T07:16:20.297Z,28.70
2018-07-08T07:18:47.621Z,28.70
2018-07-08T07:21:14.936Z,28.70
2018-07-08T07:23:42.169Z,29.30
2018-07-08T07:26:09.412Z,29.60
2018-07-08T07:28:36.727Z,29.90
2018-07-08T07:31:03.987Z,29.20
2018-07-08T07:33:31.217Z,29.20
2018-07-08T07:35:58.484Z,29.80
2018-07-08T07:38:25.873Z,30.00
2018-07-08T07:40:53.120Z,30.60
2018-07-08T07:43:20.610Z,30.70
2018-07-08T07:45:48.083Z,30.20
2018-07-08T07:48:15.789Z,30.40
2018-07-08T07:50:45.027Z,30.60
2018-07-08T07:53:12.261Z,30.70
2018-07-08T07:55:39.497Z,30.60
2018-07-08T07:58:06.706Z,29.90
2018-07-08T08:00:33.939Z,29.70
2018-07-08T08:03:01.162Z,30.30
2018-07-08T08:05:28.421Z,30.10
2018-07-08T08:07:55.644Z,30.50
2018-07-08T08:10:22.876Z,31.00
2018-07-08T08:12:50.079Z,31.40
2018-07-08T08:17:44.501Z,31.80
2018-07-08T08:20:12.069Z,32.00
2018-07-08T08:22:39.290Z,31.50
2018-07-08T08:25:06.641Z,32.40
2018-07-08T08:27:33.833Z,32.70
2018-07-08T08:30:01.050Z,33.20
2018-07-08T08:32:28.632Z,33.10
2018-07-08T08:34:57.063Z,32.70
2018-07-08T08:37:25.552Z,33.00
2018-07-08T08:39:53.456Z,31.90
2018-07-08T08:44:48.936Z,32.10
2018-07-08T08:47:16.962Z,32.50
2018-07-08T08:49:44.522Z,32.80
2018-07-08T08:52:11.737Z,32.50
2018-07-08T08:54:39.809Z,32.20
2018-07-08T08:57:07.088Z,31.40
2018-07-08T08:59:34.809Z,31.80
2018-07-08T09:02:02.201Z,30.20
2018-07-08T09:04:29.448Z,29.70
2018-07-08T09:06:56.655Z,30.10
2018-07-08T09:09:23.891Z,30.20
2018-07-08T09:11:51.137Z,30.70
2018-07-08T09:14:18.609Z,31.10
2018-07-08T09:16:45.948Z,32.30
2018-07-08T09:19:13.336Z,32.30
2018-07-08T09:21:40.592Z,32.20
2018-07-08T09:24:07.876Z,31.80
2018-07-08T09:26:35.238Z,32.00
2018-07-08T09:29:02.505Z,31.50
2018-07-08T09:31:29.733Z,31.30
2018-07-08T09:33:56.949Z,32.10
2018-07-08T09:36:24.154Z,32.20
2018-07-08T09:38:51.466Z,32.80
2018-07-08T09:41:18.568Z,33.00
2018-07-08T09:43:45.881Z,33.50
2018-07-08T09:46:13.137Z,33.30
2018-07-08T09:48:40.356Z,33.70
2018-07-08T09:51:07.580Z,33.70
2018-07-08T09:53:34.812Z,34.00
2018-07-08T09:56:02.013Z,34.00
2018-07-08T09:58:29.205Z,33.00
2018-07-08T10:03:27.360Z,33.00
2018-07-08T10:05:54.697Z,33.10
2018-07-08T10:08:21.893Z,33.10
2018-07-08T10:10:49.103Z,32.30
2018-07-08T10:13:16.281Z,32.20
2018-07-08T10:15:43.482Z,32.70
2018-07-08T10:18:10.670Z,33.00
2018-07-08T10:20:37.881Z,33.20
2018-07-08T10:23:05.080Z,33.80
2018-07-08T10:25:32.266Z,32.70
2018-07-08T10:28:08.237Z,32.00
2018-07-08T10:30:35.665Z,31.60
2018-07-08T10:33:03.123Z,30.90
2018-07-08T10:35:42.214Z,31.30
2018-07-08T10:38:09.932Z,31.30
2018-07-08T10:40:37.262Z,32.10
2018-07-08T10:43:04.621Z,32.40
2018-07-08T10:45:31.986Z,32.00
2018-07-08T10:47:59.239Z,31.30
2018-07-08T10:50:26.614Z,31.10
2018-07-08T10:52:53.946Z,31.30
2018-07-08T10:55:21.341Z,31.60
2018-07-08T10:57:48.525Z,32.40
2018-07-08T11:00:16.050Z,31.20
2018-07-08T11:02:43.304Z,30.80
2018-07-08T11:05:10.766Z,31.20
2018-07-08T11:07:38.197Z,31.50
2018-07-08T11:10:05.421Z,31.10
2018-07-08T11:12:32.688Z,31.60
2018-07-08T11:15:00.112Z,32.40
2018-07-08T11:17:27.351Z,32.50
2018-07-08T11:19:54.669Z,32.00
2018-07-08T11:22:22.072Z,31.20
2018-07-08T11:24:49.318Z,30.30
2018-07-08T11:27:16.520Z,29.50
2018-07-08T11:29:43.821Z,30.10
2018-07-08T11:32:11.010Z,30.80
2018-07-08T11:34:38.221Z,31.80
2018-07-08T11:37:05.404Z,32.30
2018-07-08T11:39:32.625Z,32.80
2018-07-08T11:41:59.843Z,32.50
2018-07-08T11:44:27.100Z,32.50
2018-07-08T11:46:54.418Z,31.60
2018-07-08T11:49:21.704Z,30.50
2018-07-08T11:51:48.958Z,30.20
2018-07-08T11:54:16.542Z,30.20
2018-07-08T11:56:43.774Z,30.80
2018-07-08T11:59:11.005Z,30.80
2018-07-08T12:01:38.329Z,31.10
2018-07-08T12:04:05.570Z,30.50
2018-07-08T12:06:32.919Z,30.20
2018-07-08T12:09:00.237Z,30.90
2018-07-08T12:13:54.711Z,30.80
2018-07-08T12:16:21.937Z,30.80
2018-07-08T12:18:49.190Z,30.70
2018-07-08T12:21:16.451Z,30.50
2018-07-08T12:23:43.676Z,30.90
2018-07-08T12:26:11.446Z,31.40
2018-07-08T12:31:06.543Z,29.20
2018-07-08T12:33:33.765Z,28.90
2018-07-08T12:36:00.974Z,28.70
2018-07-08T12:38:28.197Z,29.40
2018-07-08T12:40:55.705Z,29.60
2018-07-08T12:43:22.941Z,28.70
2018-07-08T12:45:50.174Z,28.20
2018-07-08T12:48:17.449Z,28.30
2018-07-08T12:53:12.000Z,29.30
2018-07-08T12:55:39.337Z,30.90
2018-07-08T12:58:06.557Z,31.00
2018-07-08T13:00:33.834Z,30.70
2018-07-08T13:03:01.053Z,31.10
2018-07-08T13:05:28.348Z,31.40
2018-07-08T13:07:55.756Z,31.90
2018-07-08T13:10:23.057Z,32.60
2018-07-08T13:12:50.298Z,32.70
2018-07-08T13:15:17.561Z,33.40
2018-07-08T13:17:44.763Z,33.40
2018-07-08T13:20:12.035Z,32.00
2018-07-08T13:22:39.281Z,31.60
2018-07-08T13:25:06.557Z,30.80
2018-07-08T13:27:33.992Z,29.20
2018-07-08T13:32:28.589Z,27.50
2018-07-08T13:34:55.960Z,28.50
2018-07-08T13:37:23.244Z,28.50
2018-07-08T13:39:50.457Z,28.10
2018-07-08T13:42:17.821Z,28.60
2018-07-08T13:44:45.023Z,28.30
2018-07-08T13:47:12.234Z,27.40
2018-07-08T13:49:39.497Z,27.90
2018-07-08T13:52:06.742Z,28.30
2018-07-08T13:54:34.064Z,28.70
2018-07-08T13:57:01.255Z,29.70
2018-07-08T13:59:28.455Z,30.50
2018-07-08T14:01:55.721Z,31.00
2018-07-08T14:04:22.921Z,30.90
2018-07-08T14:06:50.136Z,30.90
2018-07-08T14:09:17.314Z,30.90
2018-07-08T14:11:44.505Z,31.30
2018-07-08T14:14:11.878Z,32.00
2018-07-08T14:16:39.110Z,31.90
2018-07-08T14:19:06.312Z,31.50
2018-07-08T14:21:33.518Z,31.40
2018-07-08T14:26:27.873Z,30.60
2018-07-08T14:28:55.074Z,29.80
2018-07-08T14:31:22.413Z,30.10
2018-07-08T14:33:49.803Z,30.50
2018-07-08T14:36:17.005Z,30.10
2018-07-08T14:38:44.192Z,29.90
2018-07-08T14:41:11.377Z,30.00
2018-07-08T14:43:39.173Z,29.40
2018-07-08T14:46:06.399Z,29.60
2018-07-08T14:48:33.569Z,30.10
2018-07-08T14:51:00.789Z,30.50
2018-07-08T14:55:55.248Z,31.20
2018-07-08T14:58:22.787Z,31.30
2018-07-08T15:00:50.114Z,30.90
2018-07-08T15:03:17.385Z,30.50
2018-07-08T15:05:44.611Z,29.40
2018-07-08T15:08:11.853Z,29.30
2018-07-08T15:13:06.304Z,29.70
2018-07-08T15:15:33.697Z,29.40
2018-07-08T15:18:00.821Z,29.60
2018-07-08T15:20:28.057Z,29.80
2018-07-08T15:22:55.373Z,30.00
2018-07-08T15:25:22.584Z,30.60
2018-07-08T15:27:49.809Z,30.30
2018-07-08T15:30:17.050Z,30.20
2018-07-08T15:32:44.562Z,29.80
2018-07-08T15:35:11.926Z,29.70
2018-07-08T15:37:39.178Z,29.70
2018-07-08T15:40:06.441Z,29.30
2018-07-08T15:42:33.728Z,29.50
2018-07-08T15:45:00.969Z,29.40
2018-07-08T15:47:28.273Z,29.50
2018-07-08T15:49:55.507Z,29.20
2018-07-08T15:52:22.745Z,29.00
2018-07-08T15:54:49.961Z,29.40
2018-07-08T15:57:17.249Z,29.60
2018-07-08T15:59:44.697Z,30.00
2018-07-08T16:02:11.956Z,29.60
2018-07-08T16:04:39.221Z,29.50
2018-07-08T16:07:06.442Z,28.90
2018-07-08T16:09:33.689Z,29.00
2018-07-08T16:12:01.227Z,29.40
2018-07-08T16:16:55.989Z,29.90
2018-07-08T16:21:50.473Z,29.70
2018-07-08T16:24:17.693Z,29.80
2018-07-08T16:29:12.118Z,29.00
2018-07-08T16:31:39.325Z,28.80
2018-07-08T16:34:06.539Z,29.10
2018-07-08T16:36:33.815Z,29.20
2018-07-08T16:41:28.325Z,28.30
2018-07-08T16:43:55.565Z,28.30
2018-07-08T16:46:22.809Z,28.30
2018-07-08T16:48:50.034Z,28.40
2018-07-08T16:51:17.292Z,28.20
2018-07-08T16:53:44.533Z,28.40
2018-07-08T16:56:11.852Z,28.50
2018-07-08T16:58:39.053Z,28.30
2018-07-08T17:01:06.300Z,28.20
2018-07-08T17:03:33.688Z,28.30
2018-07-08T17:06:01.056Z,28.50
2018-07-08T17:08:28.428Z,28.50
2018-07-08T17:10:55.673Z,28.40
2018-07-08T17:13:22.894Z,28.20
2018-07-08T17:18:17.337Z,27.80
2018-07-08T17:20:44.564Z,27.80
2018-07-08T17:23:11.790Z,27.30
2018-07-08T17:25:39.028Z,26.90
2018-07-08T17:28:06.246Z,26.60
2018-07-08T17:30:33.477Z,26.10
2018-07-08T17:33:01.093Z,25.70
2018-07-08T17:35:28.327Z,25.50
2018-07-08T17:37:55.533Z,25.30
2018-07-08T17:40:22.743Z,25.00
2018-07-08T17:42:49.935Z,24.80
2018-07-08T17:45:17.990Z,24.60
2018-07-08T17:47:56.547Z,24.40
2018-07-08T17:50:23.860Z,24.20
2018-07-08T17:52:51.104Z,24.10
2018-07-08T17:55:18.328Z,23.90
2018-07-08T17:57:45.596Z,23.80
2018-07-08T18:00:13.064Z,23.70
2018-07-08T18:02:40.297Z,23.60
2018-07-08T18:05:07.549Z,23.50
2018-07-08T18:07:34.765Z,23.40
2018-07-08T18:10:02.157Z,23.30
2018-07-08T18:12:29.416Z,23.30
2018-07-08T18:14:56.673Z,23.30
2018-07-08T18:17:23.899Z,23.20
2018-07-08T18:19:51.146Z,23.00
2018-07-08T18:22:18.368Z,22.80
2018-07-08T18:24:45.641Z,22.70
2018-07-08T18:27:12.905Z,22.50
2018-07-08T18:29:40.273Z,22.30
2018-07-08T18:32:07.493Z,22.20
2018-07-08T18:34:34.845Z,22.10
2018-07-08T18:37:02.105Z,22.00
2018-07-08T18:39:29.363Z,21.90
2018-07-08T18:41:56.637Z,21.70
2018-07-08T18:44:23.893Z,21.60
2018-07-08T18:46:51.114Z,21.40
2018-07-08T18:49:18.379Z,21.30
2018-07-08T18:51:45.603Z,21.10
2018-07-08T18:54:12.909Z,21.00
2018-07-08T18:56:40.260Z,20.80
2018-07-08T18:59:07.720Z,20.70
2018-07-08T19:01:34.896Z,20.60
2018-07-08T19:04:02.124Z,20.50
2018-07-08T19:06:29.351Z,20.30
2018-07-08T19:08:56.614Z,20.20
2018-07-08T19:11:23.857Z,20.00
2018-07-08T19:13:51.077Z,19.90
2018-07-08T19:16:18.316Z,19.90
2018-07-08T19:18:45.573Z,19.70
2018-07-08T19:21:12.824Z,19.60
2018-07-08T19:23:40.079Z,19.50
2018-07-08T19:26:07.380Z,19.40
2018-07-08T19:28:34.602Z,19.30
2018-07-08T19:33:29.188Z,19.20
2018-07-08T19:35:56.441Z,19.10
2018-07-08T19:38:23.728Z,19.00
2018-07-08T19:40:51.023Z,19.00
2018-07-08T19:43:18.307Z,18.90
2018-07-08T19:45:45.604Z,18.80
2018-07-08T19:48:12.949Z,18.80
2018-07-08T19:50:40.239Z,18.80
2018-07-08T19:53:08.433Z,18.70
2018-07-08T19:55:35.665Z,18.60
2018-07-08T19:58:02.925Z,18.60
2018-07-08T20:00:30.159Z,18.60
2018-07-08T20:02:57.400Z,18.60
2018-07-08T20:05:24.674Z,18.60
2018-07-08T20:07:51.991Z,18.40
2018-07-08T20:10:19.207Z,18.40
2018-07-08T20:12:46.465Z,18.30
2018-07-08T20:15:13.696Z,18.30
2018-07-08T20:17:40.893Z,18.20
2018-07-08T20:20:09.257Z,18.20
2018-07-08T20:22:36.468Z,18.10
2018-07-08T20:25:03.791Z,18.10
2018-07-08T20:27:31.157Z,18.10
2018-07-08T20:29:58.372Z,18.00
2018-07-08T20:32:25.814Z,18.00
2018-07-08T20:34:53.115Z,18.00
2018-07-08T20:37:20.340Z,18.00
2018-07-08T20:42:14.806Z,18.00
2018-07-08T20:44:42.145Z,18.00
2018-07-08T20:47:09.425Z,17.90
2018-07-08T20:49:36.845Z,17.90
2018-07-08T20:52:04.064Z,17.90
2018-07-08T20:54:31.524Z,17.90
2018-07-08T20:56:58.881Z,17.90
2018-07-08T20:59:26.141Z,17.90
2018-07-08T21:01:53.369Z,17.80
2018-07-08T21:04:20.635Z,17.80
2018-07-08T21:06:47.853Z,17.80
2018-07-08T21:09:15.168Z,17.70
2018-07-08T21:11:42.505Z,17.70
2018-07-08T21:14:09.741Z,17.70
2018-07-08T21:16:36.983Z,17.70
2018-07-08T21:19:04.522Z,17.70
2018-07-08T21:21:31.769Z,17.70
2018-07-08T21:23:58.966Z,17.70
2018-07-08T21:26:26.278Z,17.70
2018-07-08T21:28:53.471Z,17.70
2018-07-08T21:31:20.751Z,17.70
2018-07-08T21:33:47.876Z,17.80
2018-07-08T21:36:15.062Z,17.80
2018-07-08T21:38:42.954Z,17.90
2018-07-08T21:41:10.172Z,17.90
2018-07-08T21:43:37.377Z,17.90
2018-07-08T21:46:04.636Z,17.90
2018-07-08T21:48:31.829Z,17.90
2018-07-08T21:50:59.021Z,17.80
2018-07-08T21:53:26.442Z,17.80
2018-07-08T21:55:53.683Z,17.80
2018-07-08T21:58:20.932Z,17.80
2018-07-08T22:01:06.200Z,17.70
2018-07-08T22:03:33.441Z,17.70
2018-07-08T22:06:00.791Z,17.70
2018-07-08T22:08:33.970Z,17.60
2018-07-08T22:11:03.021Z,17.60
2018-07-08T22:13:30.289Z,17.50
2018-07-08T22:15:57.513Z,17.50
2018-07-08T22:18:24.738Z,17.50
2018-07-08T22:23:19.152Z,17.40
2018-07-08T22:25:46.402Z,17.40
2018-07-08T22:28:13.660Z,17.30
2018-07-08T22:30:40.869Z,17.30
2018-07-08T22:33:08.190Z,17.20
2018-07-08T22:35:35.331Z,17.20
2018-07-08T22:38:02.549Z,17.10
2018-07-08T22:42:56.969Z,17.00
2018-07-08T22:45:24.236Z,17.00
2018-07-08T22:50:18.667Z,16.90
2018-07-08T22:52:46.023Z,16.90
2018-07-08T22:55:13.208Z,16.80
2018-07-08T22:57:40.424Z,16.80
2018-07-08T23:00:19.301Z,16.70
2018-07-08T23:02:46.845Z,16.70
2018-07-08T23:05:14.608Z,16.70
2018-07-08T23:07:42.089Z,16.60
2018-07-08T23:10:10.161Z,16.60
2018-07-08T23:12:37.645Z,16.60
2018-07-08T23:15:05.313Z,16.60
2018-07-08T23:17:32.782Z,16.60
2018-07-08T23:20:00.345Z,16.60
2018-07-08T23:22:39.058Z,16.60
2018-07-08T23:25:06.453Z,16.60
2018-07-08T23:27:33.648Z,16.60
2018-07-08T23:30:00.865Z,16.60
2018-07-08T23:32:28.081Z,16.60
2018-07-08T23:34:55.313Z,16.60
2018-07-08T23:37:22.529Z,16.60
2018-07-08T23:39:49.737Z,16.50
2018-07-08T23:42:16.941Z,16.50
2018-07-08T23:44:44.256Z,16.40
2018-07-08T23:47:11.401Z,16.40
2018-07-08T23:49:38.620Z,16.30
2018-07-08T23:52:05.850Z,16.20
2018-07-08T23:54:33.084Z,16.10
2018-07-08T23:57:00.304Z,16.10
2018-07-08T23:59:27.568Z,16.00
